Terminal Aerodrome Forecast
Issued by NWS

Home | Current Version | Previous Version | Text Only | Print | Product List | Glossary On
Versions: 1 2 3 4 5 6 7 8 9 10 11 12 13 14 15 16 17 18
000
FTUS43 KGRR 210720 AAB
TAFAZO
TAF AMD
KAZO 210720Z 2107/2206 00000KT 2SM BR SCT200
      TEMPO 2107/2111 3/4SM BR
     FM211300 15005KT P6SM SKC
     FM220000 VRB03KT P6SM SCT120 BKN200=

USA.gov is the U.S. government's official web portal to all federal, state and local government web resources and services.